sensor_id;sensor_type;location;lat;lon;timestamp;P1;durP1;ratioP1;P2;durP2;ratioP2
9222;SDS011;7557;51.698;3.942;2023-06-14T00:00:35;4.20;;;3.50;;
9222;SDS011;7557;51.698;3.942;2023-06-14T00:03:04;4.45;;;3.63;;
9222;SDS011;7557;51.698;3.942;2023-06-14T00:05:31;3.53;;;3.22;;
9222;SDS011;7557;51.698;3.942;2023-06-14T00:08:03;3.80;;;3.53;;
9222;SDS011;7557;51.698;3.942;2023-06-14T00:10:33;4.13;;;3.75;;
9222;SDS011;7557;51.698;3.942;2023-06-14T00:13:02;3.60;;;3.40;;
9222;SDS011;7557;51.698;3.942;2023-06-14T00:15:30;4.53;;;3.60;;
9222;SDS011;7557;51.698;3.942;2023-06-14T00:17:57;3.80;;;3.50;;
9222;SDS011;7557;51.698;3.942;2023-06-14T00:20:25;4.30;;;3.78;;
9222;SDS011;7557;51.698;3.942;2023-06-14T00:22:53;3.83;;;3.53;;
9222;SDS011;7557;51.698;3.942;2023-06-14T00:25:22;4.25;;;3.72;;
9222;SDS011;7557;51.698;3.942;2023-06-14T00:27:50;4.55;;;3.55;;
9222;SDS011;7557;51.698;3.942;2023-06-14T00:30:19;4.22;;;3.92;;
9222;SDS011;7557;51.698;3.942;2023-06-14T00:32:47;4.60;;;3.50;;
9222;SDS011;7557;51.698;3.942;2023-06-14T00:35:15;3.60;;;3.30;;
9222;SDS011;7557;51.698;3.942;2023-06-14T00:37:42;3.67;;;3.47;;
9222;SDS011;7557;51.698;3.942;2023-06-14T00:40:09;3.50;;;3.30;;
9222;SDS011;7557;51.698;3.942;2023-06-14T00:42:37;3.10;;;2.90;;
9222;SDS011;7557;51.698;3.942;2023-06-14T00:45:05;5.18;;;4.28;;
9222;SDS011;7557;51.698;3.942;2023-06-14T00:47:50;3.30;;;3.00;;
9222;SDS011;7557;51.698;3.942;2023-06-14T00:50:20;3.10;;;2.90;;
9222;SDS011;7557;51.698;3.942;2023-06-14T00:52:49;3.70;;;3.50;;
9222;SDS011;7557;51.698;3.942;2023-06-14T00:55:16;4.38;;;3.20;;
9222;SDS011;7557;51.698;3.942;2023-06-14T00:57:44;3.20;;;3.00;;
9222;SDS011;7557;51.698;3.942;2023-06-14T01:00:13;4.45;;;3.47;;
9222;SDS011;7557;51.698;3.942;2023-06-14T01:02:40;4.82;;;3.38;;
9222;SDS011;7557;51.698;3.942;2023-06-14T01:05:09;3.45;;;3.15;;
9222;SDS011;7557;51.698;3.942;2023-06-14T01:07:41;5.50;;;3.47;;
9222;SDS011;7557;51.698;3.942;2023-06-14T01:10:21;3.40;;;3.20;;
9222;SDS011;7557;51.698;3.942;2023-06-14T01:13:01;3.63;;;3.33;;
9222;SDS011;7557;51.698;3.942;2023-06-14T01:15:34;4.10;;;3.30;;
9222;SDS011;7557;51.698;3.942;2023-06-14T01:18:01;5.68;;;4.05;;
9222;SDS011;7557;51.698;3.942;2023-06-14T01:20:31;4.57;;;3.90;;
9222;SDS011;7557;51.698;3.942;2023-06-14T01:23:03;4.25;;;3.55;;
9222;SDS011;7557;51.698;3.942;2023-06-14T01:25:31;3.63;;;3.33;;
9222;SDS011;7557;51.698;3.942;2023-06-14T01:27:58;3.85;;;3.55;;
9222;SDS011;7557;51.698;3.942;2023-06-14T01:30:28;4.00;;;3.67;;
9222;SDS011;7557;51.698;3.942;2023-06-14T01:32:58;6.05;;;3.70;;
9222;SDS011;7557;51.698;3.942;2023-06-14T01:35:26;3.83;;;3.53;;
9222;SDS011;7557;51.698;3.942;2023-06-14T01:37:53;3.72;;;3.53;;
9222;SDS011;7557;51.698;3.942;2023-06-14T01:40:22;4.68;;;3.65;;
9222;SDS011;7557;51.698;3.942;2023-06-14T01:42:50;3.72;;;3.28;;
9222;SDS011;7557;51.698;3.942;2023-06-14T01:45:18;3.97;;;3.60;;
9222;SDS011;7557;51.698;3.942;2023-06-14T01:47:46;3.83;;;3.40;;
9222;SDS011;7557;51.698;3.942;2023-06-14T01:50:14;6.80;;;3.47;;
9222;SDS011;7557;51.698;3.942;2023-06-14T01:52:42;5.35;;;3.78;;
9222;SDS011;7557;51.698;3.942;2023-06-14T01:55:10;4.75;;;3.88;;
9222;SDS011;7557;51.698;3.942;2023-06-14T01:57:39;4.80;;;3.80;;
9222;SDS011;7557;51.698;3.942;2023-06-14T02:00:07;5.03;;;3.88;;
9222;SDS011;7557;51.698;3.942;2023-06-14T02:02:37;4.18;;;3.72;;
9222;SDS011;7557;51.698;3.942;2023-06-14T02:05:05;4.50;;;3.60;;
9222;SDS011;7557;51.698;3.942;2023-06-14T02:07:32;3.88;;;3.58;;
9222;SDS011;7557;51.698;3.942;2023-06-14T02:10:00;4.40;;;3.70;;
9222;SDS011;7557;51.698;3.942;2023-06-14T02:12:27;4.70;;;4.07;;
9222;SDS011;7557;51.698;3.942;2023-06-14T02:14:56;3.70;;;3.35;;
9222;SDS011;7557;51.698;3.942;2023-06-14T02:17:23;3.65;;;3.40;;
9222;SDS011;7557;51.698;3.942;2023-06-14T02:19:51;3.92;;;3.65;;
9222;SDS011;7557;51.698;3.942;2023-06-14T02:22:18;4.00;;;3.60;;
9222;SDS011;7557;51.698;3.942;2023-06-14T02:24:47;3.90;;;3.65;;
9222;SDS011;7557;51.698;3.942;2023-06-14T02:27:15;3.75;;;3.42;;
9222;SDS011;7557;51.698;3.942;2023-06-14T02:29:42;4.35;;;3.97;;
9222;SDS011;7557;51.698;3.942;2023-06-14T02:32:11;4.80;;;3.83;;
9222;SDS011;7557;51.698;3.942;2023-06-14T02:34:38;5.70;;;4.15;;
9222;SDS011;7557;51.698;3.942;2023-06-14T02:37:06;3.53;;;3.22;;
9222;SDS011;7557;51.698;3.942;2023-06-14T02:39:33;4.03;;;3.70;;
9222;SDS011;7557;51.698;3.942;2023-06-14T02:42:01;4.10;;;3.75;;
9222;SDS011;7557;51.698;3.942;2023-06-14T02:44:29;5.07;;;4.03;;
9222;SDS011;7557;51.698;3.942;2023-06-14T02:46:57;6.97;;;4.57;;
9222;SDS011;7557;51.698;3.942;2023-06-14T02:49:27;3.67;;;3.38;;
9222;SDS011;7557;51.698;3.942;2023-06-14T02:51:54;4.85;;;4.40;;
9222;SDS011;7557;51.698;3.942;2023-06-14T02:54:22;4.97;;;3.80;;
9222;SDS011;7557;51.698;3.942;2023-06-14T02:56:49;4.50;;;4.20;;
9222;SDS011;7557;51.698;3.942;2023-06-14T02:59:16;3.67;;;3.47;;
9222;SDS011;7557;51.698;3.942;2023-06-14T03:01:44;4.10;;;3.70;;
9222;SDS011;7557;51.698;3.942;2023-06-14T03:04:11;4.32;;;4.00;;
9222;SDS011;7557;51.698;3.942;2023-06-14T03:06:40;3.85;;;3.50;;
9222;SDS011;7557;51.698;3.942;2023-06-14T03:09:09;6.07;;;4.35;;
9222;SDS011;7557;51.698;3.942;2023-06-14T03:11:36;4.35;;;3.80;;
9222;SDS011;7557;51.698;3.942;2023-06-14T03:14:03;6.15;;;4.07;;
9222;SDS011;7557;51.698;3.942;2023-06-14T03:16:32;4.90;;;4.35;;
9222;SDS011;7557;51.698;3.942;2023-06-14T03:18:59;5.70;;;4.05;;
9222;SDS011;7557;51.698;3.942;2023-06-14T03:21:26;3.83;;;3.63;;
9222;SDS011;7557;51.698;3.942;2023-06-14T03:23:55;4.20;;;3.85;;
9222;SDS011;7557;51.698;3.942;2023-06-14T03:26:22;4.47;;;4.18;;
9222;SDS011;7557;51.698;3.942;2023-06-14T03:28:50;4.43;;;4.03;;
9222;SDS011;7557;51.698;3.942;2023-06-14T03:31:17;5.13;;;4.00;;
9222;SDS011;7557;51.698;3.942;2023-06-14T03:33:45;5.65;;;4.00;;
9222;SDS011;7557;51.698;3.942;2023-06-14T03:36:12;11.73;;;6.40;;
9222;SDS011;7557;51.698;3.942;2023-06-14T03:38:40;4.50;;;3.90;;
9222;SDS011;7557;51.698;3.942;2023-06-14T03:41:09;4.72;;;3.97;;
9222;SDS011;7557;51.698;3.942;2023-06-14T03:43:39;4.22;;;3.92;;
9222;SDS011;7557;51.698;3.942;2023-06-14T03:46:07;4.70;;;4.30;;
9222;SDS011;7557;51.698;3.942;2023-06-14T03:48:34;5.20;;;3.65;;
9222;SDS011;7557;51.698;3.942;2023-06-14T03:51:02;4.63;;;4.15;;
9222;SDS011;7557;51.698;3.942;2023-06-14T03:53:29;4.10;;;3.88;;
9222;SDS011;7557;51.698;3.942;2023-06-14T03:55:57;6.35;;;4.30;;
9222;SDS011;7557;51.698;3.942;2023-06-14T03:58:26;4.53;;;4.00;;
9222;SDS011;7557;51.698;3.942;2023-06-14T04:00:54;5.90;;;3.97;;
9222;SDS011;7557;51.698;3.942;2023-06-14T04:03:21;5.13;;;3.80;;
9222;SDS011;7557;51.698;3.942;2023-06-14T04:05:50;5.93;;;3.88;;
9222;SDS011;7557;51.698;3.942;2023-06-14T04:08:21;5.05;;;3.85;;
9222;SDS011;7557;51.698;3.942;2023-06-14T04:10:49;4.28;;;3.65;;
9222;SDS011;7557;51.698;3.942;2023-06-14T04:13:17;3.95;;;3.65;;
9222;SDS011;7557;51.698;3.942;2023-06-14T04:15:46;4.43;;;4.10;;
9222;SDS011;7557;51.698;3.942;2023-06-14T04:18:13;4.15;;;3.88;;
9222;SDS011;7557;51.698;3.942;2023-06-14T04:20:40;4.15;;;3.83;;
9222;SDS011;7557;51.698;3.942;2023-06-14T04:23:12;5.30;;;3.75;;
9222;SDS011;7557;51.698;3.942;2023-06-14T04:25:40;4.47;;;4.18;;
9222;SDS011;7557;51.698;3.942;2023-06-14T04:28:10;6.93;;;3.70;;
9222;SDS011;7557;51.698;3.942;2023-06-14T04:30:39;6.47;;;4.15;;
9222;SDS011;7557;51.698;3.942;2023-06-14T04:33:08;4.55;;;4.18;;
9222;SDS011;7557;51.698;3.942;2023-06-14T04:35:36;4.65;;;4.35;;
9222;SDS011;7557;51.698;3.942;2023-06-14T04:38:04;4.75;;;3.92;;
9222;SDS011;7557;51.698;3.942;2023-06-14T04:40:34;3.92;;;3.60;;
9222;SDS011;7557;51.698;3.942;2023-06-14T04:43:07;6.95;;;3.85;;
9222;SDS011;7557;51.698;3.942;2023-06-14T04:45:37;4.32;;;3.85;;
9222;SDS011;7557;51.698;3.942;2023-06-14T04:48:05;4.57;;;4.13;;
9222;SDS011;7557;51.698;3.942;2023-06-14T04:50:34;4.60;;;4.18;;
9222;SDS011;7557;51.698;3.942;2023-06-14T04:53:01;5.07;;;3.95;;
9222;SDS011;7557;51.698;3.942;2023-06-14T04:55:29;3.92;;;3.67;;
9222;SDS011;7557;51.698;3.942;2023-06-14T04:57:56;4.03;;;3.78;;
9222;SDS011;7557;51.698;3.942;2023-06-14T05:00:27;4.13;;;3.63;;
9222;SDS011;7557;51.698;3.942;2023-06-14T05:02:55;4.50;;;3.80;;
9222;SDS011;7557;51.698;3.942;2023-06-14T05:05:23;5.97;;;3.80;;
9222;SDS011;7557;51.698;3.942;2023-06-14T05:07:52;5.28;;;3.42;;
9222;SDS011;7557;51.698;3.942;2023-06-14T05:10:20;7.05;;;3.75;;
9222;SDS011;7557;51.698;3.942;2023-06-14T05:12:47;7.07;;;3.53;;
9222;SDS011;7557;51.698;3.942;2023-06-14T05:15:15;3.88;;;3.60;;
9222;SDS011;7557;51.698;3.942;2023-06-14T05:17:42;3.90;;;3.45;;
9222;SDS011;7557;51.698;3.942;2023-06-14T05:20:15;8.15;;;3.70;;
9222;SDS011;7557;51.698;3.942;2023-06-14T05:22:43;3.92;;;3.60;;
9222;SDS011;7557;51.698;3.942;2023-06-14T05:25:12;8.80;;;3.45;;
9222;SDS011;7557;51.698;3.942;2023-06-14T05:27:39;5.82;;;4.00;;
9222;SDS011;7557;51.698;3.942;2023-06-14T05:30:07;4.13;;;3.72;;
9222;SDS011;7557;51.698;3.942;2023-06-14T05:32:39;3.80;;;3.50;;
9222;SDS011;7557;51.698;3.942;2023-06-14T05:35:07;4.25;;;3.95;;
9222;SDS011;7557;51.698;3.942;2023-06-14T05:37:35;4.00;;;3.53;;
9222;SDS011;7557;51.698;3.942;2023-06-14T05:40:03;4.18;;;3.85;;
9222;SDS011;7557;51.698;3.942;2023-06-14T05:42:34;3.85;;;3.55;;
9222;SDS011;7557;51.698;3.942;2023-06-14T05:45:01;6.57;;;3.95;;
9222;SDS011;7557;51.698;3.942;2023-06-14T05:47:29;4.07;;;3.60;;
9222;SDS011;7557;51.698;3.942;2023-06-14T05:49:57;8.75;;;4.07;;
9222;SDS011;7557;51.698;3.942;2023-06-14T05:52:24;6.50;;;3.83;;
9222;SDS011;7557;51.698;3.942;2023-06-14T05:54:51;6.03;;;4.28;;
9222;SDS011;7557;51.698;3.942;2023-06-14T05:57:19;4.38;;;3.75;;
9222;SDS011;7557;51.698;3.942;2023-06-14T05:59:48;4.40;;;3.58;;
9222;SDS011;7557;51.698;3.942;2023-06-14T06:02:15;6.20;;;3.67;;
9222;SDS011;7557;51.698;3.942;2023-06-14T06:04:43;5.65;;;4.38;;
9222;SDS011;7557;51.698;3.942;2023-06-14T06:07:10;6.43;;;4.00;;
9222;SDS011;7557;51.698;3.942;2023-06-14T06:09:37;5.97;;;3.42;;
9222;SDS011;7557;51.698;3.942;2023-06-14T06:12:05;5.95;;;3.70;;
9222;SDS011;7557;51.698;3.942;2023-06-14T06:14:33;4.20;;;3.85;;
9222;SDS011;7557;51.698;3.942;2023-06-14T06:17:03;5.40;;;3.42;;
9222;SDS011;7557;51.698;3.942;2023-06-14T06:19:31;5.18;;;3.63;;
9222;SDS011;7557;51.698;3.942;2023-06-14T06:21:59;5.68;;;3.72;;
9222;SDS011;7557;51.698;3.942;2023-06-14T06:24:26;3.97;;;3.67;;
9222;SDS011;7557;51.698;3.942;2023-06-14T06:26:54;4.30;;;3.90;;
9222;SDS011;7557;51.698;3.942;2023-06-14T06:29:21;4.00;;;3.70;;
9222;SDS011;7557;51.698;3.942;2023-06-14T06:31:48;6.32;;;3.60;;
9222;SDS011;7557;51.698;3.942;2023-06-14T06:34:17;5.28;;;3.63;;
9222;SDS011;7557;51.698;3.942;2023-06-14T06:36:45;4.10;;;3.65;;
9222;SDS011;7557;51.698;3.942;2023-06-14T06:39:12;9.15;;;3.60;;
9222;SDS011;7557;51.698;3.942;2023-06-14T06:41:40;6.18;;;3.85;;
9222;SDS011;7557;51.698;3.942;2023-06-14T06:44:07;5.95;;;3.70;;
9222;SDS011;7557;51.698;3.942;2023-06-14T06:46:36;6.05;;;3.88;;
9222;SDS011;7557;51.698;3.942;2023-06-14T06:49:05;4.28;;;3.88;;
9222;SDS011;7557;51.698;3.942;2023-06-14T06:51:34;5.13;;;3.20;;
9222;SDS011;7557;51.698;3.942;2023-06-14T06:54:01;4.03;;;3.63;;
9222;SDS011;7557;51.698;3.942;2023-06-14T06:56:31;8.70;;;3.97;;
9222;SDS011;7557;51.698;3.942;2023-06-14T06:58:58;4.78;;;3.50;;
9222;SDS011;7557;51.698;3.942;2023-06-14T07:01:25;4.57;;;3.95;;
9222;SDS011;7557;51.698;3.942;2023-06-14T07:03:54;4.00;;;3.70;;
9222;SDS011;7557;51.698;3.942;2023-06-14T07:06:21;5.55;;;3.75;;
9222;SDS011;7557;51.698;3.942;2023-06-14T07:08:53;3.92;;;3.50;;
9222;SDS011;7557;51.698;3.942;2023-06-14T07:11:26;5.28;;;3.60;;
9222;SDS011;7557;51.698;3.942;2023-06-14T07:13:53;3.83;;;3.53;;
9222;SDS011;7557;51.698;3.942;2023-06-14T07:16:21;6.97;;;3.53;;
9222;SDS011;7557;51.698;3.942;2023-06-14T07:18:48;4.22;;;3.80;;
9222;SDS011;7557;51.698;3.942;2023-06-14T07:21:16;4.78;;;3.63;;
9222;SDS011;7557;51.698;3.942;2023-06-14T07:23:43;4.72;;;4.13;;
9222;SDS011;7557;51.698;3.942;2023-06-14T07:26:12;7.20;;;3.85;;
9222;SDS011;7557;51.698;3.942;2023-06-14T07:28:39;5.43;;;4.07;;
9222;SDS011;7557;51.698;3.942;2023-06-14T07:31:10;6.25;;;4.35;;
9222;SDS011;7557;51.698;3.942;2023-06-14T07:33:37;5.63;;;4.03;;
9222;SDS011;7557;51.698;3.942;2023-06-14T07:36:05;7.68;;;4.10;;
9222;SDS011;7557;51.698;3.942;2023-06-14T07:38:32;5.13;;;3.90;;
9222;SDS011;7557;51.698;3.942;2023-06-14T07:41:00;6.13;;;4.22;;
9222;SDS011;7557;51.698;3.942;2023-06-14T07:43:29;5.30;;;4.90;;
9222;SDS011;7557;51.698;3.942;2023-06-14T07:45:56;5.22;;;3.90;;
9222;SDS011;7557;51.698;3.942;2023-06-14T07:48:24;4.47;;;4.07;;
9222;SDS011;7557;51.698;3.942;2023-06-14T07:50:51;4.32;;;3.97;;
9222;SDS011;7557;51.698;3.942;2023-06-14T07:53:18;4.43;;;4.00;;
9222;SDS011;7557;51.698;3.942;2023-06-14T07:55:45;4.18;;;3.85;;
9222;SDS011;7557;51.698;3.942;2023-06-14T07:58:14;4.55;;;4.20;;
9222;SDS011;7557;51.698;3.942;2023-06-14T08:00:43;5.40;;;4.85;;
9222;SDS011;7557;51.698;3.942;2023-06-14T08:03:11;5.13;;;4.60;;
9222;SDS011;7557;51.698;3.942;2023-06-14T08:05:39;5.35;;;4.72;;
9222;SDS011;7557;51.698;3.942;2023-06-14T08:08:06;6.10;;;4.75;;
9222;SDS011;7557;51.698;3.942;2023-06-14T08:10:33;4.55;;;4.15;;
9222;SDS011;7557;51.698;3.942;2023-06-14T08:13:01;7.75;;;4.50;;
9222;SDS011;7557;51.698;3.942;2023-06-14T08:15:29;4.57;;;4.10;;
9222;SDS011;7557;51.698;3.942;2023-06-14T08:17:57;4.90;;;4.60;;
9222;SDS011;7557;51.698;3.942;2023-06-14T08:20:26;5.78;;;4.55;;
9222;SDS011;7557;51.698;3.942;2023-06-14T08:22:55;9.43;;;4.65;;
9222;SDS011;7557;51.698;3.942;2023-06-14T08:25:23;4.60;;;4.07;;
9222;SDS011;7557;51.698;3.942;2023-06-14T08:27:51;5.97;;;4.32;;
9222;SDS011;7557;51.698;3.942;2023-06-14T08:30:18;4.93;;;4.45;;
9222;SDS011;7557;51.698;3.942;2023-06-14T08:32:46;5.53;;;4.40;;
9222;SDS011;7557;51.698;3.942;2023-06-14T08:35:15;6.88;;;4.40;;
9222;SDS011;7557;51.698;3.942;2023-06-14T08:37:43;4.78;;;4.38;;
9222;SDS011;7557;51.698;3.942;2023-06-14T08:40:16;5.70;;;4.05;;
9222;SDS011;7557;51.698;3.942;2023-06-14T08:42:47;4.78;;;4.13;;
9222;SDS011;7557;51.698;3.942;2023-06-14T08:45:17;4.32;;;4.03;;
9222;SDS011;7557;51.698;3.942;2023-06-14T08:47:45;5.25;;;4.53;;
9222;SDS011;7557;51.698;3.942;2023-06-14T08:50:19;5.10;;;4.20;;
9222;SDS011;7557;51.698;3.942;2023-06-14T08:52:50;6.65;;;4.95;;
9222;SDS011;7557;51.698;3.942;2023-06-14T08:55:22;8.07;;;4.85;;
9222;SDS011;7557;51.698;3.942;2023-06-14T08:57:53;9.15;;;5.07;;
9222;SDS011;7557;51.698;3.942;2023-06-14T09:00:23;7.10;;;4.60;;
9222;SDS011;7557;51.698;3.942;2023-06-14T09:02:53;10.63;;;5.60;;
9222;SDS011;7557;51.698;3.942;2023-06-14T09:05:24;7.20;;;5.22;;
9222;SDS011;7557;51.698;3.942;2023-06-14T09:07:53;6.32;;;4.00;;
9222;SDS011;7557;51.698;3.942;2023-06-14T09:10:21;4.90;;;4.50;;
9222;SDS011;7557;51.698;3.942;2023-06-14T09:12:51;8.23;;;4.43;;
9222;SDS011;7557;51.698;3.942;2023-06-14T09:15:18;6.22;;;4.60;;
9222;SDS011;7557;51.698;3.942;2023-06-14T09:17:45;5.32;;;4.55;;
9222;SDS011;7557;51.698;3.942;2023-06-14T09:20:13;5.03;;;4.60;;
9222;SDS011;7557;51.698;3.942;2023-06-14T09:22:45;5.70;;;5.20;;
9222;SDS011;7557;51.698;3.942;2023-06-14T09:25:12;4.82;;;4.43;;
9222;SDS011;7557;51.698;3.942;2023-06-14T09:27:41;6.20;;;4.78;;
9222;SDS011;7557;51.698;3.942;2023-06-14T09:30:09;7.10;;;5.25;;
9222;SDS011;7557;51.698;3.942;2023-06-14T09:32:37;5.82;;;5.38;;
9222;SDS011;7557;51.698;3.942;2023-06-14T09:35:06;10.23;;;6.65;;
9222;SDS011;7557;51.698;3.942;2023-06-14T09:37:34;6.00;;;5.00;;
9222;SDS011;7557;51.698;3.942;2023-06-14T09:40:06;6.35;;;5.22;;
9222;SDS011;7557;51.698;3.942;2023-06-14T09:42:35;6.57;;;4.68;;
9222;SDS011;7557;51.698;3.942;2023-06-14T09:45:02;5.03;;;4.70;;
9222;SDS011;7557;51.698;3.942;2023-06-14T09:47:31;6.93;;;5.00;;
9222;SDS011;7557;51.698;3.942;2023-06-14T09:49:58;6.68;;;5.05;;
9222;SDS011;7557;51.698;3.942;2023-06-14T09:52:26;4.80;;;4.43;;
9222;SDS011;7557;51.698;3.942;2023-06-14T09:54:55;5.07;;;4.63;;
9222;SDS011;7557;51.698;3.942;2023-06-14T09:57:26;5.97;;;4.90;;
9222;SDS011;7557;51.698;3.942;2023-06-14T09:59:58;4.57;;;4.07;;
9222;SDS011;7557;51.698;3.942;2023-06-14T10:02:34;4.68;;;4.10;;
9222;SDS011;7557;51.698;3.942;2023-06-14T10:05:03;6.28;;;4.45;;
9222;SDS011;7557;51.698;3.942;2023-06-14T10:07:35;5.25;;;4.15;;
9222;SDS011;7557;51.698;3.942;2023-06-14T10:10:07;8.57;;;3.97;;
9222;SDS011;7557;51.698;3.942;2023-06-14T10:12:37;4.32;;;3.92;;
9222;SDS011;7557;51.698;3.942;2023-06-14T10:15:07;5.13;;;4.38;;
9222;SDS011;7557;51.698;3.942;2023-06-14T10:17:40;6.13;;;4.00;;
9222;SDS011;7557;51.698;3.942;2023-06-14T10:20:18;11.18;;;4.25;;
9222;SDS011;7557;51.698;3.942;2023-06-14T10:22:55;5.35;;;3.97;;
9222;SDS011;7557;51.698;3.942;2023-06-14T10:25:26;4.50;;;4.20;;
9222;SDS011;7557;51.698;3.942;2023-06-14T10:31:07;4.38;;;3.63;;
9222;SDS011;7557;51.698;3.942;2023-06-14T10:33:36;4.20;;;3.63;;
9222;SDS011;7557;51.698;3.942;2023-06-14T10:38:57;9.25;;;4.00;;
9222;SDS011;7557;51.698;3.942;2023-06-14T10:41:26;8.32;;;3.90;;
9222;SDS011;7557;51.698;3.942;2023-06-14T10:46:57;5.97;;;3.65;;
9222;SDS011;7557;51.698;3.942;2023-06-14T10:49:39;4.65;;;3.35;;
9222;SDS011;7557;51.698;3.942;2023-06-14T10:52:08;3.97;;;3.67;;
9222;SDS011;7557;51.698;3.942;2023-06-14T10:57:29;6.10;;;3.53;;
9222;SDS011;7557;51.698;3.942;2023-06-14T10:59:57;3.63;;;3.33;;
9222;SDS011;7557;51.698;3.942;2023-06-14T11:02:41;5.55;;;3.65;;
9222;SDS011;7557;51.698;3.942;2023-06-14T11:05:28;4.47;;;3.10;;
9222;SDS011;7557;51.698;3.942;2023-06-14T11:07:58;4.78;;;2.70;;
9222;SDS011;7557;51.698;3.942;2023-06-14T11:10:43;3.90;;;2.95;;
9222;SDS011;7557;51.698;3.942;2023-06-14T11:13:11;3.50;;;3.15;;
9222;SDS011;7557;51.698;3.942;2023-06-14T11:15:43;3.17;;;2.88;;
9222;SDS011;7557;51.698;3.942;2023-06-14T11:18:14;2.90;;;2.70;;
9222;SDS011;7557;51.698;3.942;2023-06-14T11:20:45;3.22;;;2.85;;
9222;SDS011;7557;51.698;3.942;2023-06-14T11:23:13;4.18;;;3.55;;
9222;SDS011;7557;51.698;3.942;2023-06-14T11:25:41;3.38;;;3.08;;
9222;SDS011;7557;51.698;3.942;2023-06-14T11:28:08;3.10;;;2.92;;
9222;SDS011;7557;51.698;3.942;2023-06-14T11:30:36;4.78;;;2.60;;
9222;SDS011;7557;51.698;3.942;2023-06-14T11:33:03;3.72;;;3.25;;
9222;SDS011;7557;51.698;3.942;2023-06-14T11:35:33;3.13;;;2.83;;
9222;SDS011;7557;51.698;3.942;2023-06-14T11:38:01;2.80;;;2.53;;
9222;SDS011;7557;51.698;3.942;2023-06-14T11:40:30;3.65;;;3.35;;
9222;SDS011;7557;51.698;3.942;2023-06-14T11:42:58;3.38;;;2.92;;
9222;SDS011;7557;51.698;3.942;2023-06-14T11:45:26;6.38;;;2.97;;
9222;SDS011;7557;51.698;3.942;2023-06-14T11:47:54;3.38;;;3.08;;
9222;SDS011;7557;51.698;3.942;2023-06-14T11:50:23;2.88;;;2.65;;
9222;SDS011;7557;51.698;3.942;2023-06-14T11:52:55;3.60;;;2.90;;
9222;SDS011;7557;51.698;3.942;2023-06-14T11:55:25;7.25;;;3.10;;
9222;SDS011;7557;51.698;3.942;2023-06-14T11:57:53;2.95;;;2.63;;
9222;SDS011;7557;51.698;3.942;2023-06-14T12:00:24;2.75;;;2.65;;
9222;SDS011;7557;51.698;3.942;2023-06-14T12:02:53;3.65;;;2.80;;
9222;SDS011;7557;51.698;3.942;2023-06-14T12:05:21;3.53;;;2.72;;
9222;SDS011;7557;51.698;3.942;2023-06-14T12:07:49;3.50;;;2.80;;
9222;SDS011;7557;51.698;3.942;2023-06-14T12:10:20;2.67;;;2.55;;
9222;SDS011;7557;51.698;3.942;2023-06-14T12:12:47;4.75;;;2.75;;
9222;SDS011;7557;51.698;3.942;2023-06-14T12:15:15;2.90;;;2.70;;
9222;SDS011;7557;51.698;3.942;2023-06-14T12:17:43;3.67;;;2.67;;
9222;SDS011;7557;51.698;3.942;2023-06-14T12:20:11;2.92;;;2.70;;
9222;SDS011;7557;51.698;3.942;2023-06-14T12:22:47;3.47;;;2.83;;
9222;SDS011;7557;51.698;3.942;2023-06-14T12:25:27;2.78;;;2.45;;
9222;SDS011;7557;51.698;3.942;2023-06-14T12:27:57;2.45;;;2.25;;
9222;SDS011;7557;51.698;3.942;2023-06-14T12:30:25;2.60;;;2.40;;
9222;SDS011;7557;51.698;3.942;2023-06-14T12:32:52;2.10;;;2.00;;
9222;SDS011;7557;51.698;3.942;2023-06-14T12:35:19;2.47;;;2.38;;
9222;SDS011;7557;51.698;3.942;2023-06-14T12:37:47;2.45;;;2.15;;
9222;SDS011;7557;51.698;3.942;2023-06-14T12:40:15;3.92;;;2.45;;
9222;SDS011;7557;51.698;3.942;2023-06-14T12:42:44;2.22;;;2.13;;
9222;SDS011;7557;51.698;3.942;2023-06-14T12:45:12;2.33;;;2.22;;
9222;SDS011;7557;51.698;3.942;2023-06-14T12:47:39;2.40;;;2.30;;
9222;SDS011;7557;51.698;3.942;2023-06-14T12:50:07;2.65;;;2.22;;
9222;SDS011;7557;51.698;3.942;2023-06-14T12:52:35;2.30;;;2.10;;
9222;SDS011;7557;51.698;3.942;2023-06-14T12:55:03;3.67;;;2.00;;
9222;SDS011;7557;51.698;3.942;2023-06-14T12:57:31;2.13;;;1.85;;
9222;SDS011;7557;51.698;3.942;2023-06-14T13:00:03;2.55;;;2.05;;
9222;SDS011;7557;51.698;3.942;2023-06-14T13:02:32;2.72;;;1.83;;
9222;SDS011;7557;51.698;3.942;2023-06-14T13:05:00;1.85;;;1.75;;
9222;SDS011;7557;51.698;3.942;2023-06-14T13:07:29;2.25;;;1.60;;
9222;SDS011;7557;51.698;3.942;2023-06-14T13:09:56;1.73;;;1.60;;
9222;SDS011;7557;51.698;3.942;2023-06-14T13:12:24;1.90;;;1.88;;
9222;SDS011;7557;51.698;3.942;2023-06-14T13:14:51;1.83;;;1.73;;
9222;SDS011;7557;51.698;3.942;2023-06-14T13:17:20;2.75;;;1.80;;
9222;SDS011;7557;51.698;3.942;2023-06-14T13:19:48;1.70;;;1.60;;
9222;SDS011;7557;51.698;3.942;2023-06-14T13:22:15;1.70;;;1.55;;
9222;SDS011;7557;51.698;3.942;2023-06-14T13:24:43;1.80;;;1.70;;
9222;SDS011;7557;51.698;3.942;2023-06-14T13:27:10;1.95;;;1.85;;
9222;SDS011;7557;51.698;3.942;2023-06-14T13:29:39;1.80;;;1.70;;
9222;SDS011;7557;51.698;3.942;2023-06-14T13:32:07;1.35;;;1.35;;
9222;SDS011;7557;51.698;3.942;2023-06-14T13:34:36;1.73;;;1.52;;
9222;SDS011;7557;51.698;3.942;2023-06-14T13:37:04;3.08;;;1.60;;
9222;SDS011;7557;51.698;3.942;2023-06-14T13:39:32;1.45;;;1.45;;
9222;SDS011;7557;51.698;3.942;2023-06-14T13:41:59;1.60;;;1.60;;
9222;SDS011;7557;51.698;3.942;2023-06-14T13:44:26;1.55;;;1.50;;
9222;SDS011;7557;51.698;3.942;2023-06-14T13:46:54;1.65;;;1.55;;
9222;SDS011;7557;51.698;3.942;2023-06-14T13:49:21;1.60;;;1.50;;
9222;SDS011;7557;51.698;3.942;2023-06-14T13:51:52;2.35;;;1.92;;
9222;SDS011;7557;51.698;3.942;2023-06-14T13:54:20;3.92;;;1.67;;
9222;SDS011;7557;51.698;3.942;2023-06-14T13:56:47;1.83;;;1.73;;
9222;SDS011;7557;51.698;3.942;2023-06-14T13:59:15;1.90;;;1.80;;
9222;SDS011;7557;51.698;3.942;2023-06-14T14:01:43;1.83;;;1.73;;
9222;SDS011;7557;51.698;3.942;2023-06-14T14:04:10;1.80;;;1.70;;
9222;SDS011;7557;51.698;3.942;2023-06-14T14:06:38;2.03;;;1.55;;
9222;SDS011;7557;51.698;3.942;2023-06-14T14:09:07;2.00;;;1.85;;
9222;SDS011;7557;51.698;3.942;2023-06-14T14:11:35;4.35;;;2.00;;
9222;SDS011;7557;51.698;3.942;2023-06-14T14:14:03;1.92;;;1.83;;
9222;SDS011;7557;51.698;3.942;2023-06-14T14:16:31;1.75;;;1.65;;
9222;SDS011;7557;51.698;3.942;2023-06-14T14:18:58;1.92;;;1.83;;
9222;SDS011;7557;51.698;3.942;2023-06-14T14:21:27;3.85;;;2.00;;
9222;SDS011;7557;51.698;3.942;2023-06-14T14:23:56;3.45;;;1.80;;
9222;SDS011;7557;51.698;3.942;2023-06-14T14:26:25;3.38;;;1.92;;
9222;SDS011;7557;51.698;3.942;2023-06-14T14:28:56;1.95;;;1.85;;
9222;SDS011;7557;51.698;3.942;2023-06-14T14:31:23;1.90;;;1.80;;
9222;SDS011;7557;51.698;3.942;2023-06-14T14:33:51;3.58;;;1.77;;
9222;SDS011;7557;51.698;3.942;2023-06-14T14:36:18;1.90;;;1.80;;
9222;SDS011;7557;51.698;3.942;2023-06-14T14:38:45;3.83;;;2.22;;
9222;SDS011;7557;51.698;3.942;2023-06-14T14:41:13;2.45;;;1.90;;
9222;SDS011;7557;51.698;3.942;2023-06-14T14:43:42;1.90;;;1.90;;
9222;SDS011;7557;51.698;3.942;2023-06-14T14:46:10;2.08;;;1.98;;
9222;SDS011;7557;51.698;3.942;2023-06-14T14:48:37;2.25;;;1.80;;
9222;SDS011;7557;51.698;3.942;2023-06-14T14:51:04;2.05;;;1.95;;
9222;SDS011;7557;51.698;3.942;2023-06-14T14:53:32;2.42;;;1.90;;
9222;SDS011;7557;51.698;3.942;2023-06-14T14:55:59;1.73;;;1.70;;
9222;SDS011;7557;51.698;3.942;2023-06-14T14:58:27;1.98;;;1.88;;
9222;SDS011;7557;51.698;3.942;2023-06-14T15:00:56;2.92;;;1.88;;
9222;SDS011;7557;51.698;3.942;2023-06-14T15:03:23;4.32;;;2.00;;
9222;SDS011;7557;51.698;3.942;2023-06-14T15:05:51;3.03;;;2.10;;
9222;SDS011;7557;51.698;3.942;2023-06-14T15:08:19;4.18;;;2.03;;
9222;SDS011;7557;51.698;3.942;2023-06-14T15:10:47;4.25;;;2.00;;
9222;SDS011;7557;51.698;3.942;2023-06-14T15:13:14;3.90;;;1.90;;
9222;SDS011;7557;51.698;3.942;2023-06-14T15:15:42;2.15;;;1.75;;
9222;SDS011;7557;51.698;3.942;2023-06-14T15:18:11;1.95;;;1.67;;
9222;SDS011;7557;51.698;3.942;2023-06-14T15:20:39;3.38;;;2.30;;
9222;SDS011;7557;51.698;3.942;2023-06-14T15:23:07;2.00;;;1.80;;
9222;SDS011;7557;51.698;3.942;2023-06-14T15:25:35;2.33;;;2.00;;
9222;SDS011;7557;51.698;3.942;2023-06-14T15:28:02;2.17;;;1.98;;
9222;SDS011;7557;51.698;3.942;2023-06-14T15:30:32;3.05;;;1.77;;
9222;SDS011;7557;51.698;3.942;2023-06-14T15:32:59;2.40;;;1.63;;
9222;SDS011;7557;51.698;3.942;2023-06-14T15:35:28;1.63;;;1.63;;